createdAt,value
2022-07-28T00:00:34.175Z,92
2022-07-28T00:11:55.598Z,110
2022-07-28T00:17:35.787Z,108
2022-07-28T00:23:16.009Z,104
2022-07-28T00:28:56.140Z,94
2022-07-28T00:34:43.052Z,104
2022-07-28T00:40:23.347Z,102
2022-07-28T00:57:24.451Z,94
2022-07-28T01:03:06.158Z,94
2022-07-28T01:08:46.574Z,94
2022-07-28T01:20:07.258Z,96
2022-07-28T01:25:49.267Z,100
2022-07-28T01:31:30.532Z,88
2022-07-28T01:37:10.937Z,90
2022-07-28T01:42:52.495Z,138
2022-07-28T01:48:33.393Z,98
2022-07-28T01:59:56.307Z,106
2022-07-28T02:05:36.483Z,106
2022-07-28T02:11:16.667Z,104
2022-07-28T02:16:57.095Z,104
2022-07-28T02:22:37.518Z,94
2022-07-28T02:45:41.559Z,104
2022-07-28T02:51:21.637Z,108
2022-07-28T02:57:02.070Z,104
2022-07-28T03:02:42.378Z,92
2022-07-28T03:08:23.010Z,94
2022-07-28T03:19:43.575Z,104
2022-07-28T03:25:23.690Z,104
2022-07-28T03:31:04.999Z,104
2022-07-28T03:36:46.164Z,98
2022-07-28T03:42:26.590Z,100
2022-07-28T03:48:07.018Z,98
2022-07-28T03:58:48.390Z,90
2022-07-28T04:04:29.046Z,100
2022-07-28T04:15:50.421Z,100
2022-07-28T04:21:31.112Z,102
2022-07-28T04:27:11.680Z,98
2022-07-28T04:32:52.046Z,100
2022-07-28T04:55:39.267Z,104
2022-07-28T05:01:20.831Z,100
2022-07-28T05:07:13.400Z,92
2022-07-28T05:12:53.893Z,102
2022-07-28T05:18:34.733Z,104
2022-07-28T05:29:58.370Z,102
2022-07-28T05:35:38.898Z,98
2022-07-28T05:46:38.584Z,129
2022-07-28T05:52:19.260Z,104
2022-07-28T05:57:59.919Z,98
2022-07-28T06:03:43.139Z,100
2022-07-28T06:09:27.039Z,102
2022-07-28T06:15:07.490Z,100
2022-07-28T06:25:51.342Z,107
2022-07-28T06:37:14.311Z,90
2022-07-28T06:42:55.319Z,98
2022-07-28T06:48:36.392Z,94
2022-07-28T06:54:22.770Z,96
2022-07-28T07:00:06.690Z,50
2022-07-28T07:22:54.807Z,26
2022-07-28T07:28:34.692Z,26
2022-07-28T07:34:18.058Z,30
2022-07-28T07:39:58.788Z,16
2022-07-28T07:45:38.621Z,16
2022-07-28T07:51:20.030Z,12
2022-07-28T07:57:00.787Z,12
2022-07-28T08:02:40.953Z,6
2022-07-28T08:08:48.824Z,8
2022-07-28T08:14:28.944Z,6
2022-07-28T08:20:09.439Z,0
2022-07-28T08:25:50.683Z,0
2022-07-28T08:31:41.631Z,0
2022-07-28T08:37:23.809Z,0
2022-07-28T08:43:04.327Z,0
2022-07-28T08:48:48.128Z,0
2022-07-28T08:54:29.024Z,6
2022-07-28T09:11:37.609Z,0
2022-07-28T09:17:17.882Z,0
2022-07-28T09:22:58.777Z,30
2022-07-28T09:28:38.750Z,6
2022-07-28T09:34:29.217Z,2
2022-07-28T09:40:11.313Z,2
2022-07-28T09:45:51.563Z,2
2022-07-28T09:51:32.852Z,2
2022-07-28T09:57:17.294Z,0
2022-07-28T10:03:03.624Z,0
2022-07-28T10:08:46.515Z,0
2022-07-28T10:14:26.981Z,0
2022-07-28T10:20:19.476Z,0
2022-07-28T10:26:13.178Z,4
2022-07-28T10:31:57.320Z,0
2022-07-28T10:37:37.335Z,0
2022-07-28T10:54:56.374Z,0
2022-07-28T11:01:21.702Z,0
2022-07-28T11:07:13.583Z,0
2022-07-28T11:12:55.611Z,0
2022-07-28T11:18:35.968Z,0
2022-07-28T11:24:19.368Z,0
2022-07-28T11:29:59.325Z,0
2022-07-28T11:35:39.612Z,0
2022-07-28T11:41:20.673Z,32
2022-07-28T11:47:01.656Z,0
2022-07-28T11:52:42.403Z,22
2022-07-28T11:58:28.002Z,14
2022-07-28T12:21:16.323Z,0
2022-07-28T12:26:57.244Z,2
2022-07-28T12:32:37.561Z,0
2022-07-28T12:38:18.586Z,0
2022-07-28T12:43:58.829Z,4
2022-07-28T12:49:39.752Z,0
2022-07-28T12:55:20.280Z,2
2022-07-28T13:01:02.174Z,0
2022-07-28T13:06:43.280Z,2
2022-07-28T13:12:29.206Z,0
2022-07-28T13:18:12.788Z,8
2022-07-28T13:23:52.457Z,0
2022-07-28T13:29:32.616Z,18
2022-07-28T13:35:21.527Z,0
2022-07-28T13:41:02.617Z,36
2022-07-28T13:46:50.645Z,26
2022-07-28T13:52:37.918Z,16
2022-07-28T13:58:18.553Z,28
2022-07-28T14:03:59.309Z,14
2022-07-28T14:21:01.233Z,20
2022-07-28T14:26:42.138Z,26
2022-07-28T14:32:22.517Z,0
2022-07-28T14:38:55.201Z,0
2022-07-28T14:44:39.293Z,4
2022-07-28T14:50:19.615Z,30
2022-07-28T14:56:01.178Z,32
2022-07-28T15:01:42.923Z,46
2022-07-28T15:07:23.271Z,40
2022-07-28T15:13:04.043Z,88
2022-07-28T15:18:46.675Z,80
2022-07-28T15:24:28.341Z,22
2022-07-28T15:30:13.072Z,46
2022-07-28T15:36:00.819Z,66
2022-07-28T15:41:41.229Z,82
2022-07-28T15:58:42.393Z,94
2022-07-28T16:04:24.543Z,90
2022-07-28T16:10:04.765Z,90
2022-07-28T16:15:48.802Z,94
2022-07-28T16:21:28.996Z,90
2022-07-28T16:27:09.211Z,98
2022-07-28T16:32:50.204Z,80
2022-07-28T16:38:31.464Z,78
2022-07-28T16:44:13.505Z,84
2022-07-28T16:49:57.453Z,94
2022-07-28T16:55:37.785Z,84
2022-07-28T17:01:23.052Z,94
2022-07-28T17:07:03.572Z,82
2022-07-28T17:18:31.286Z,92
2022-07-28T17:29:57.973Z,90
2022-07-28T17:35:38.673Z,98
2022-07-28T17:41:19.177Z,94
2022-07-28T17:47:00.207Z,96
2022-07-28T17:52:40.426Z,96
2022-07-28T17:58:35.627Z,92
2022-07-28T18:04:19.575Z,94
2022-07-28T18:21:23.619Z,90
2022-07-28T18:27:03.857Z,96
2022-07-28T18:32:44.562Z,92
2022-07-28T18:38:24.724Z,94
2022-07-28T18:44:04.803Z,76
2022-07-28T18:49:45.025Z,90
2022-07-28T18:55:34.335Z,94
2022-07-28T19:01:15.156Z,86
2022-07-28T19:06:55.601Z,98
2022-07-28T19:12:35.725Z,94
2022-07-28T19:18:15.823Z,90
2022-07-28T19:23:55.895Z,98
2022-07-28T19:29:35.996Z,72
2022-07-28T19:35:19.235Z,86
2022-07-28T19:40:59.309Z,94
2022-07-28T19:46:46.364Z,90
2022-07-28T20:04:06.458Z,108
2022-07-28T20:21:11.584Z,90
2022-07-28T20:26:55.131Z,84
2022-07-28T20:32:35.564Z,106
2022-07-28T20:38:16.303Z,114
2022-07-28T20:44:31.847Z,68
2022-07-28T20:50:12.680Z,102
2022-07-28T20:55:52.514Z,104
2022-07-28T21:01:33.679Z,72
2022-07-28T21:07:14.358Z,80
2022-07-28T21:12:57.276Z,78
2022-07-28T21:18:40.042Z,74
2022-07-28T21:24:20.277Z,90
2022-07-28T21:30:00.609Z,78
2022-07-28T21:35:43.526Z,78
2022-07-28T21:41:23.840Z,84
2022-07-28T21:58:28.790Z,100
2022-07-28T22:04:09.645Z,90
2022-07-28T22:09:49.874Z,98
2022-07-28T22:15:29.979Z,80
2022-07-28T22:21:10.122Z,90
2022-07-28T22:26:50.439Z,72
2022-07-28T22:32:30.617Z,92
2022-07-28T22:43:53.690Z,78
2022-07-28T22:49:34.364Z,74
2022-07-28T22:55:19.081Z,110
2022-07-28T23:01:07.613Z,104
2022-07-28T23:06:47.916Z,96
2022-07-28T23:12:28.306Z,104
2022-07-28T23:18:08.460Z,106
2022-07-28T23:23:49.282Z,98
2022-07-28T23:29:29.548Z,94
2022-07-28T23:35:09.756Z,94
2022-07-28T23:52:16.708Z,98
2022-07-28T23:57:57.056Z,100
